Brasie Corners, New York
Current Conditions -  °F | °C
As of 7:58 PM on Monday 22 Dec 2014 (Local Time) from KGTB Reporting Station
Scattered Clouds Scattered Clouds  
Wind Chill: -3°   Ceiling: Unl
Heat Index:   Visibility: 10mi
Dew Point: -3°   Wind: 8mph
Humidity: 73%   Direction: 160°SSE
Pressure: 30.17"   Gusts: NA
Location:  44.3309°N, 75.4775°W
Report Text: KGTB 230058Z AUTO 16007KT 10SM SCT033 01/M03 A3017 RMK AO2 SLP226 T00121032
Loading
Personal Weather Stations






























Interactive Weather Map New forecast layout! Learn more

10-Day Weather Forecast

Advertisements
Track Severe Weather on mobile